Time;durP1;ratioP1;P1;durP2;ratioP2;P2;SDS_P1;SDS_P2;PMS_P1;PMS_P2;Temp;Humidity;BMP_temperature;BMP_pressure;BME280_temperature;BME280_humidity;BME280_pressure;Samples;Min_cycle;Max_cycle;Signal;HPM_P1;HPM_P2
2022/03/21 00:02:02;;;;;;;;;58.25;48.50;;;;;11.79;47.95;102051.34;5048774;28;45443;-63
2022/03/21 00:04:27;;;;;;;;;63.25;48.00;;;;;11.77;48.25;102042.44;5029094;28;46474;-66
2022/03/21 00:06:53;;;;;;;;;61.00;48.00;;;;;11.79;48.56;102050.47;5047246;28;45579;-66
2022/03/21 00:09:18;;;;;;;;;63.00;48.50;;;;;11.76;48.16;102048.97;5033420;28;45637;-65
2022/03/21 00:11:44;;;;;;;;;61.25;46.25;;;;;11.75;48.17;102052.75;5033722;28;46440;-67
2022/03/21 00:14:12;;;;;;;;;64.50;50.75;;;;;11.64;48.29;102040.31;5050000;28;45832;-64
2022/03/21 00:16:41;;;;;;;;;60.00;48.50;;;;;11.70;48.31;102051.63;5066041;28;45479;-64
2022/03/21 00:19:07;;;;;;;;;62.25;47.50;;;;;11.72;48.95;102052.28;5034876;28;45366;-65
2022/03/21 00:21:34;;;;;;;;;65.25;50.00;;;;;11.61;48.69;102029.69;5034546;28;46166;-66
2022/03/21 00:24:00;;;;;;;;;64.25;51.25;;;;;11.73;48.30;102054.84;5066543;28;45384;-66
2022/03/21 00:26:26;;;;;;;;;62.25;45.75;;;;;11.65;48.61;102042.00;5033113;28;45501;-64
2022/03/21 00:28:51;;;;;;;;;64.50;51.00;;;;;11.51;48.41;102015.34;5066923;28;45634;-65
2022/03/21 00:31:17;;;;;;;;;65.50;51.00;;;;;11.72;48.75;102044.88;5046357;28;45405;-63
2022/03/21 00:33:42;;;;;;;;;59.25;48.75;;;;;11.71;48.92;102051.44;5014276;28;45464;-64
2022/03/21 00:36:08;;;;;;;;;63.25;50.50;;;;;11.70;48.81;102057.97;5014659;28;45247;-65
2022/03/21 00:38:36;;;;;;;;;59.25;47.00;;;;;11.69;48.88;102053.50;4996675;28;45573;-63
2022/03/21 00:41:04;;;;;;;;;60.25;47.50;;;;;11.69;48.71;102053.50;5012846;28;47302;-64
2022/03/21 00:43:30;;;;;;;;;62.50;51.25;;;;;11.55;49.13;102027.69;5014356;28;45340;-65
2022/03/21 00:45:57;;;;;;;;;59.25;48.25;;;;;11.70;48.59;102051.63;5014293;28;45521;-65
2022/03/21 00:48:26;;;;;;;;;59.75;49.50;;;;;11.65;49.00;102060.44;4997249;28;45310;-63
2022/03/21 00:50:54;;;;;;;;;61.75;47.50;;;;;11.47;49.10;102036.03;5017244;28;45869;-63
2022/03/21 00:53:19;;;;;;;;;59.00;49.00;;;;;11.42;49.27;102024.75;5016633;28;45450;-62
2022/03/21 00:55:46;;;;;;;;;62.00;49.00;;;;;11.63;48.84;102054.28;5017633;28;45525;-65
2022/03/21 00:58:11;;;;;;;;;57.50;44.25;;;;;11.58;48.50;102054.81;5016517;28;45307;-64
2022/03/21 01:00:37;;;;;;;;;57.25;44.50;;;;;11.57;49.23;102049.53;5016423;28;45708;-64
2022/03/21 01:03:03;;;;;;;;;60.25;48.50;;;;;11.55;48.67;102046.09;5016297;28;45318;-64
2022/03/21 01:05:28;;;;;;;;;61.50;49.75;;;;;11.49;49.07;102029.28;5015440;28;45671;-63
2022/03/21 01:07:54;;;;;;;;;58.50;48.00;;;;;11.64;49.24;102047.72;5050372;28;45425;-65
2022/03/21 01:10:20;;;;;;;;;57.00;45.25;;;;;11.60;49.27;102047.25;5035601;28;45836;-64
2022/03/21 01:12:46;;;;;;;;;56.20;45.20;;;;;11.60;49.25;102044.50;5052771;28;45402;-64
2022/03/21 01:15:14;;;;;;;;;61.75;47.25;;;;;11.61;49.51;102048.09;5052935;28;45369;-65
2022/03/21 01:17:42;;;;;;;;;63.50;49.50;;;;;11.23;49.74;101988.47;5037300;28;45594;-65
2022/03/21 01:20:08;;;;;;;;;61.25;49.00;;;;;11.63;49.07;102048.78;5037325;28;45484;-64
2022/03/21 01:22:33;;;;;;;;;60.60;47.60;;;;;11.64;49.01;102051.31;5038084;28;45331;-64
2022/03/21 01:24:59;;;;;;;;;62.50;50.50;;;;;11.36;49.08;102001.56;5038013;28;45339;-65
2022/03/21 01:27:24;;;;;;;;;31.50;28.50;;;;;11.64;49.11;102051.31;5036455;28;45570;-65
2022/03/21 01:29:50;;;;;;;;;53.25;43.00;;;;;11.45;49.11;102022.47;5035966;28;45421;-63
2022/03/21 01:32:16;;;;;;;;;63.50;48.75;;;;;11.63;49.08;102052.34;5052405;28;45746;-65
2022/03/21 01:34:41;;;;;;;;;61.25;47.00;;;;;11.61;49.29;102053.59;5036385;28;45369;-65
2022/03/21 01:37:07;;;;;;;;;56.00;45.00;;;;;11.63;49.44;102054.28;5037015;28;45290;-64
2022/03/21 01:39:32;;;;;;;;;61.75;46.50;;;;;11.63;49.59;102051.53;5036078;28;45831;-64
2022/03/21 01:41:58;;;;;;;;;54.25;44.75;;;;;11.63;49.58;102051.53;5035761;28;45524;-64
2022/03/21 01:44:24;;;;;;;;;56.25;45.25;;;;;11.37;49.65;102017.88;5037100;28;45407;-64
2022/03/21 01:46:49;;;;;;;;;68.75;48.00;;;;;11.63;49.29;102051.53;5037463;28;45571;-65
2022/03/21 01:49:15;;;;;;;;;62.25;47.25;;;;;11.55;49.29;102041.44;5035536;28;45793;-63
2022/03/21 01:51:41;;;;;;;;;60.25;47.25;;;;;11.61;49.29;102048.94;5036067;28;45436;-64
2022/03/21 01:56:51;;;;;;;;;58.20;45.80;;;;;11.56;49.40;102043.16;5035873;28;45366;-65
2022/03/21 01:59:17;;;;;;;;;60.25;48.00;;;;;11.58;50.10;102060.31;5034881;28;46117;-67
2022/03/21 02:01:42;;;;;;;;;62.00;48.50;;;;;11.55;49.48;102059.81;5035803;28;45807;-63
2022/03/21 02:04:08;;;;;;;;;62.25;48.50;;;;;11.29;49.66;102017.09;5036720;28;45488;-65
2022/03/21 02:06:34;;;;;;;;;57.25;46.50;;;;;11.24;49.34;102010.28;5035282;28;45587;-65
2022/03/21 02:09:01;;;;;;;;;58.00;46.00;;;;;11.01;49.81;101988.34;5035141;28;46338;-64
2022/03/21 02:11:27;;;;;;;;;58.60;46.20;;;;;11.15;50.27;101999.56;5035251;28;45414;-65
2022/03/21 02:13:54;;;;;;;;;61.00;47.75;;;;;11.45;49.72;102055.47;5034830;28;45454;-66
2022/03/21 02:16:21;;;;;;;;;62.25;47.00;;;;;11.45;50.45;102049.09;5051916;28;45356;-65
2022/03/21 02:18:46;;;;;;;;;61.00;49.00;;;;;11.47;49.71;102053.38;5034487;28;48479;-65
2022/03/21 02:21:20;;;;;;;;;62.25;46.75;;;;;11.25;50.00;102014.75;5036546;28;45474;-66
2022/03/21 02:23:49;;;;;;;;;60.00;46.80;;;;;11.30;50.14;102021.59;5034994;28;45410;-64
2022/03/21 02:26:14;;;;;;;;;60.00;45.20;;;;;11.18;50.63;102004.66;5019134;28;45306;-65
2022/03/21 02:28:40;;;;;;;;;63.00;49.50;;;;;11.36;50.12;102043.69;5017718;28;47370;-66
2022/03/21 02:31:06;;;;;;;;;62.00;46.50;;;;;11.36;50.46;102045.56;5034628;28;45403;-64
2022/03/21 02:33:31;;;;;;;;;63.25;48.25;;;;;11.38;50.33;102046.25;5034858;28;45354;-65
2022/03/21 02:35:57;;;;;;;;;62.25;50.00;;;;;11.34;50.57;102032.03;5035041;28;45616;-66
2022/03/21 02:38:22;;;;;;;;;62.00;48.25;;;;;11.38;50.47;102033.34;5018048;28;46215;-64
2022/03/21 02:40:48;;;;;;;;;63.25;51.50;;;;;11.35;50.57;102027.34;5017793;28;46033;-66
2022/03/21 02:43:14;;;;;;;;;69.00;50.00;;;;;11.40;50.61;102041.41;5034602;28;45421;-65
2022/03/21 02:45:41;;;;;;;;;57.25;46.00;;;;;11.29;50.53;102022.59;5034787;28;45439;-63
2022/03/21 02:48:06;;;;;;;;;62.00;48.00;;;;;11.38;50.86;102029.75;5035557;28;46043;-64
2022/03/21 02:50:39;;;;;;;;;60.25;47.50;;;;;11.38;50.25;102032.50;5051305;28;45402;-65
2022/03/21 02:53:05;;;;;;;;;67.25;51.00;;;;;11.41;51.08;102026.63;5035943;28;45424;-66
2022/03/21 02:55:30;;;;;;;;;66.25;51.25;;;;;10.73;50.58;101914.72;5034606;28;45681;-65
2022/03/21 02:57:56;;;;;;;;;49.75;40.25;;;;;11.36;51.60;102024.44;5033676;28;46486;-63
2022/03/21 03:00:21;;;;;;;;;61.75;49.00;;;;;11.41;51.53;102028.53;5034670;28;45437;-64
2022/03/21 03:02:47;;;;;;;;;65.50;48.75;;;;;11.44;50.80;102028.16;5035313;28;45574;-64
2022/03/21 03:05:12;;;;;;;;;62.25;45.75;;;;;11.42;50.93;102020.06;5026184;28;45984;-65
2022/03/21 03:07:38;;;;;;;;;59.50;48.00;;;;;11.33;51.18;102030.31;5034779;28;45428;-64
2022/03/21 03:10:04;;;;;;;;;55.25;45.50;;;;;11.25;51.62;102012.00;5031495;28;45675;-63
2022/03/21 03:12:30;;;;;;;;;60.50;47.25;;;;;11.37;50.83;102028.03;5034416;28;45682;-64
2022/03/21 03:14:56;;;;;;;;;60.00;47.00;;;;;11.41;51.27;102032.13;5032033;28;45620;-65
2022/03/21 03:17:21;;;;;;;;;60.50;47.50;;;;;11.44;51.16;102039.13;5033254;28;45575;-63
2022/03/21 03:19:47;;;;;;;;;67.75;51.75;;;;;11.44;51.03;102034.50;5033759;28;45898;-65
2022/03/21 03:22:13;;;;;;;;;64.75;49.50;;;;;11.48;50.83;102040.50;5032030;28;45369;-67
2022/03/21 03:24:38;;;;;;;;;57.75;44.75;;;;;11.47;51.02;102042.38;5033223;28;45333;-63
2022/03/21 03:27:05;;;;;;;;;65.25;50.50;;;;;11.33;50.87;102024.81;5033740;28;45632;-66
2022/03/21 03:29:31;;;;;;;;;66.20;48.60;;;;;11.35;51.86;102038.34;5035099;28;45461;-65
2022/03/21 03:32:00;;;;;;;;;62.00;50.25;;;;;11.37;51.91;102034.38;5034865;28;45363;-64
2022/03/21 03:34:26;;;;;;;;;59.50;46.00;;;;;11.31;51.33;102015.03;5067465;28;45845;-64
2022/03/21 03:36:51;;;;;;;;;59.75;46.25;;;;;11.44;51.30;102041.88;5050554;28;45772;-66
2022/03/21 03:39:17;;;;;;;;;62.50;47.25;;;;;11.43;51.18;102049.31;5050209;28;45360;-66
2022/03/21 03:41:42;;;;;;;;;62.25;49.75;;;;;11.37;51.46;102047.28;5035246;28;45380;-65
2022/03/21 03:44:09;;;;;;;;;66.25;49.75;;;;;11.41;51.84;102042.28;5034969;28;45236;-67
2022/03/21 03:46:34;;;;;;;;;59.75;49.25;;;;;11.43;51.99;102046.56;5034964;28;46579;-65
2022/03/21 03:49:00;;;;;;;;;61.50;46.75;;;;;11.42;51.70;102044.81;5050406;28;45477;-63
2022/03/21 03:51:26;;;;;;;;;62.75;49.00;;;;;11.09;51.32;101990.13;5034822;28;45834;-64
2022/03/21 03:53:51;;;;;;;;;55.25;46.25;;;;;11.42;51.25;102041.22;5035261;28;45646;-63
2022/03/21 03:56:17;;;;;;;;;63.75;48.50;;;;;11.44;51.53;102058.38;5034124;28;46206;-64
2022/03/21 03:58:42;;;;;;;;;69.00;49.50;;;;;11.43;51.51;102052.06;5033543;28;45449;-64
2022/03/21 04:01:08;;;;;;;;;61.75;47.00;;;;;11.45;51.20;102055.47;5034976;28;45299;-62
2022/03/21 04:03:46;;;;;;;;;63.25;48.00;;;;;11.37;51.28;102048.13;5034813;28;45583;-63
2022/03/21 04:06:20;;;;;;;;;57.00;44.40;;;;;11.24;51.91;102026.78;5063670;28;45845;-65
2022/03/21 04:08:46;;;;;;;;;59.60;47.60;;;;;11.46;51.29;102053.53;5034636;28;45407;-65
2022/03/21 04:11:12;;;;;;;;;58.00;45.20;;;;;11.45;51.80;102058.22;5033771;28;45412;-64
2022/03/21 04:13:38;;;;;;;;;60.00;48.00;;;;;11.46;51.86;102062.66;5034771;28;45362;-63
2022/03/21 04:16:04;;;;;;;;;58.25;46.00;;;;;11.44;51.67;102048.25;5034391;28;45922;-65
2022/03/21 04:18:30;;;;;;;;;60.60;47.00;;;;;11.46;51.99;102059.91;5049715;28;45361;-65
2022/03/21 04:20:55;;;;;;;;;62.25;48.00;;;;;11.46;51.32;102065.41;5049829;28;45466;-64
2022/03/21 04:23:21;;;;;;;;;61.25;47.50;;;;;11.28;51.96;102030.00;5035007;28;45336;-66
2022/03/21 04:25:46;;;;;;;;;60.00;47.25;;;;;11.48;51.63;102071.56;5069976;28;45932;-64
2022/03/21 04:28:12;;;;;;;;;63.50;47.75;;;;;11.44;51.55;102062.00;5036650;28;45453;-60
2022/03/21 04:30:38;;;;;;;;;60.25;47.25;;;;;11.48;52.24;102071.56;5038002;28;45464;-63
2022/03/21 04:33:04;;;;;;;;;57.50;42.75;;;;;11.50;52.18;102069.50;5038249;28;45528;-65
2022/03/21 04:35:30;;;;;;;;;67.75;48.75;;;;;11.25;51.85;102033.97;5037772;28;46230;-64
2022/03/21 04:37:55;;;;;;;;;60.50;45.50;;;;;11.24;51.86;102039.66;5036625;28;45445;-65
2022/03/21 04:40:22;;;;;;;;;62.00;48.50;;;;;11.38;52.58;102065.50;5020096;28;45312;-65
2022/03/21 04:42:48;;;;;;;;;56.00;46.25;;;;;11.47;52.35;102085.53;5036762;28;45365;-64
2022/03/21 04:45:13;;;;;;;;;58.75;46.25;;;;;11.42;52.49;102074.22;5037481;28;45730;-64
2022/03/21 04:47:39;;;;;;;;;56.00;46.00;;;;;11.46;52.35;102084.66;5037622;28;45458;-63
2022/03/21 04:50:07;;;;;;;;;63.00;46.50;;;;;11.36;53.06;102098.66;5037865;28;45259;-63
2022/03/21 04:52:33;;;;;;;;;60.25;46.50;;;;;11.37;52.62;102086.63;5040568;28;45523;-64
2022/03/21 04:54:59;;;;;;;;;54.50;41.50;;;;;11.40;52.36;102093.63;5037889;28;46827;-64
2022/03/21 04:57:25;;;;;;;;;64.20;47.60;;;;;11.30;52.93;102087.56;5037437;28;45452;-63
2022/03/21 04:59:52;;;;;;;;;63.25;47.25;;;;;11.40;52.74;102101.88;5037689;28;45362;-63
2022/03/21 05:02:17;;;;;;;;;61.25;47.25;;;;;11.41;52.83;102102.75;5036865;28;45556;-64
2022/03/21 05:04:43;;;;;;;;;62.25;48.75;;;;;11.43;52.72;102097.91;5037234;28;45377;-64
2022/03/21 05:07:16;;;;;;;;;57.50;48.00;;;;;11.47;52.29;102096.53;5037754;28;45369;-65
2022/03/21 05:09:42;;;;;;;;;60.80;47.40;;;;;11.43;52.23;102100.66;5037628;28;45333;-64
2022/03/21 05:12:09;;;;;;;;;59.50;48.75;;;;;11.47;53.25;102102.84;5036744;28;45527;-65
2022/03/21 05:14:35;;;;;;;;;59.25;46.25;;;;;11.47;52.93;102102.03;5037057;28;45710;-64
2022/03/21 05:17:02;;;;;;;;;61.75;49.25;;;;;11.47;52.69;102096.53;5037639;28;45396;-64
2022/03/21 05:19:34;;;;;;;;;59.00;48.25;;;;;11.48;53.04;102104.56;5037415;28;45310;-65
2022/03/21 05:22:03;;;;;;;;;60.25;47.75;;;;;11.43;52.86;102093.28;5037941;28;45412;-64
2022/03/21 05:32:40;;;;;;;;;56.25;44.50;;;;;11.28;53.07;102075.88;5036366;28;45391;-64
2022/03/21 05:37:51;;;;;;;;;57.00;45.60;;;;;11.44;52.79;102107.88;5037085;28;45524;-65
2022/03/21 05:40:31;;;;;;;;;65.00;49.25;;;;;11.28;53.68;102089.59;5036930;28;45424;-65
2022/03/21 05:42:57;;;;;;;;;55.75;46.00;;;;;11.33;53.96;102095.41;5037326;28;45333;-63
2022/03/21 05:45:23;;;;;;;;;64.75;51.50;;;;;11.42;53.64;102110.78;5037140;28;46125;-65
2022/03/21 05:50:37;;;;;;;;;59.20;47.20;;;;;11.44;53.64;102114.25;5029178;28;45548;-64
2022/03/21 05:53:04;;;;;;;;;60.00;45.50;;;;;11.43;53.38;102111.66;5053249;28;45594;-62
2022/03/21 05:55:30;;;;;;;;;63.00;47.00;;;;;11.31;53.52;102109.34;5052628;28;47999;-64
2022/03/21 05:57:57;;;;;;;;;53.75;45.75;;;;;11.37;53.63;102133.34;5036508;28;45378;-64
2022/03/21 06:00:22;;;;;;;;;60.20;47.60;;;;;11.39;53.44;102130.41;5036981;28;45388;-64
2022/03/21 06:02:48;;;;;;;;;66.25;47.00;;;;;11.04;54.14;102081.38;5036979;28;45365;-65
2022/03/21 06:05:14;;;;;;;;;57.25;44.25;;;;;11.30;54.16;102126.03;5068886;28;46953;-64
2022/03/21 06:07:40;;;;;;;;;58.25;43.25;;;;;11.23;54.46;102134.13;5036683;28;45304;-62
2022/03/21 06:10:07;;;;;;;;;67.25;50.00;;;;;11.20;54.94;102135.34;4978167;27;45602;-64
2022/03/21 06:12:32;;;;;;;;;59.75;46.50;;;;;11.18;54.16;102134.69;5037954;28;45966;-63
2022/03/21 06:14:59;;;;;;;;;58.50;47.75;;;;;11.16;54.70;102130.41;5036495;28;45965;-62
2022/03/21 06:17:24;;;;;;;;;62.00;49.40;;;;;11.23;54.44;102143.25;5036355;28;45314;-63
2022/03/21 06:19:50;;;;;;;;;59.50;45.50;;;;;11.16;54.51;102145.00;5036501;28;45260;-62
2022/03/21 06:22:15;;;;;;;;;62.50;48.25;;;;;11.07;55.08;102154.34;5036545;28;45370;-62
2022/03/21 06:24:41;;;;;;;;;58.25;45.25;;;;;11.02;55.80;102156.75;5036540;28;46341;-64
2022/03/21 06:27:06;;;;;;;;;68.00;47.25;;;;;10.92;55.65;102144.13;5036330;28;45387;-64
2022/03/21 06:29:32;;;;;;;;;58.50;46.25;;;;;10.97;55.96;102165.53;5036697;28;45656;-64
2022/03/21 06:31:58;;;;;;;;;60.25;49.00;;;;;10.93;55.57;102161.44;5036338;28;45297;-64
2022/03/21 06:34:29;;;;;;;;;68.25;51.25;;;;;10.94;55.50;102160.44;5036149;28;46076;-64
2022/03/21 06:36:54;;;;;;;;;59.00;47.20;;;;;11.00;55.98;102167.94;5050731;28;45327;-64
2022/03/21 06:39:20;;;;;;;;;61.75;48.25;;;;;11.03;55.95;102164.81;5051859;28;45369;-64
2022/03/21 06:41:46;;;;;;;;;65.00;48.00;;;;;11.01;55.25;102166.91;5036456;28;45423;-64
2022/03/21 06:44:13;;;;;;;;;57.00;45.75;;;;;11.12;55.36;102185.72;5068125;28;46171;-63
2022/03/21 06:46:39;;;;;;;;;62.00;47.60;;;;;11.12;56.12;102180.22;5035398;28;45365;-64
2022/03/21 06:49:04;;;;;;;;;64.50;48.00;;;;;11.11;55.38;102188.66;5035980;28;45377;-63
2022/03/21 06:51:30;;;;;;;;;59.50;48.00;;;;;11.10;55.60;102197.94;5051563;28;45391;-64
2022/03/21 06:53:55;;;;;;;;;57.50;45.50;;;;;11.06;55.56;102186.44;5035688;28;46002;-65
2022/03/21 06:56:21;;;;;;;;;58.00;43.00;;;;;11.16;55.96;102201.84;5051094;28;45357;-65
2022/03/21 06:58:46;;;;;;;;;60.50;46.75;;;;;11.20;55.86;102205.97;5035699;28;45445;-63
2022/03/21 07:01:12;;;;;;;;;59.25;48.00;;;;;11.22;56.17;102207.47;5035754;28;45364;-63
2022/03/21 07:03:38;;;;;;;;;60.00;47.25;;;;;11.22;55.58;102206.63;5035486;28;46631;-63
2022/03/21 07:06:03;;;;;;;;;58.25;47.25;;;;;11.28;55.94;102202.28;5035564;28;45443;-63
2022/03/21 07:08:29;;;;;;;;;59.00;48.00;;;;;11.27;55.17;102206.97;5035356;28;45476;-63
2022/03/21 07:10:55;;;;;;;;;62.00;47.80;;;;;11.19;55.75;102199.59;5015992;28;45447;-63
2022/03/21 07:13:22;;;;;;;;;56.00;43.00;;;;;11.12;55.84;102162.91;5013319;28;46218;-62
2022/03/21 07:15:47;;;;;;;;;57.40;46.60;;;;;11.25;55.10;102185.16;5014016;28;45346;-63
2022/03/21 07:18:13;;;;;;;;;55.25;45.50;;;;;11.31;55.33;102188.22;5014427;28;45796;-63
2022/03/21 07:20:42;;;;;;;;;56.00;45.00;;;;;11.41;54.67;102201.72;5015731;28;45387;-62
2022/03/21 07:23:08;;;;;;;;;62.60;47.20;;;;;11.40;54.85;102195.34;5015327;28;46783;-64
2022/03/21 07:25:33;;;;;;;;;54.25;42.00;;;;;10.96;55.16;102117.13;5013996;28;45931;-64
2022/03/21 07:27:59;;;;;;;;;56.00;45.00;;;;;11.44;55.17;102204.97;5015513;28;45469;-61
2022/03/21 07:30:26;;;;;;;;;52.75;43.00;;;;;11.50;54.81;102203.38;5015720;28;45345;-62
2022/03/21 07:32:51;;;;;;;;;55.80;45.20;;;;;11.57;54.81;102206.25;5028463;28;46337;-64
2022/03/21 07:35:17;;;;;;;;;59.25;45.50;;;;;11.65;54.74;102209.78;5034775;28;45400;-62
2022/03/21 07:37:46;;;;;;;;;56.75;41.00;;;;;11.73;53.83;102208.00;5033797;28;45417;-65
2022/03/21 07:40:12;;;;;;;;;61.50;47.50;;;;;11.59;54.24;102182.16;5035594;28;45408;-62
2022/03/21 07:42:41;;;;;;;;;54.75;43.75;;;;;11.83;53.61;102222.38;5050506;28;46636;-64
2022/03/21 07:47:51;;;;;;;;;53.00;42.20;;;;;11.85;53.87;102214.78;5034893;28;45396;-67
2022/03/21 07:50:19;;;;;;;;;44.25;38.00;;;;;11.88;53.26;102214.44;5035540;28;45340;-64
2022/03/21 07:52:45;;;;;;;;;48.60;40.20;;;;;11.56;52.90;102153.13;5034773;28;45792;-65
2022/03/21 07:55:10;;;;;;;;;49.75;38.75;;;;;11.82;53.26;102204.16;5035017;28;45295;-65
2022/03/21 07:57:35;;;;;;;;;55.00;39.00;;;;;11.66;53.43;102183.16;5049967;28;45550;-65
2022/03/21 08:00:01;;;;;;;;;48.75;40.25;;;;;11.88;53.51;102217.19;5070039;28;45341;-64
2022/03/21 08:02:27;;;;;;;;;53.00;41.25;;;;;11.93;53.37;102216.63;5036889;28;45976;-63
2022/03/21 08:04:53;;;;;;;;;54.40;42.00;;;;;11.89;52.79;102205.13;5037187;28;45432;-63
2022/03/21 08:07:18;;;;;;;;;50.75;41.00;;;;;11.94;53.11;102221.06;5037258;28;45462;-65
2022/03/21 08:09:46;;;;;;;;;47.25;38.00;;;;;11.95;53.69;102224.69;5038153;28;45430;-66
2022/03/21 08:12:12;;;;;;;;;42.00;34.80;;;;;11.95;52.83;102220.03;5038193;28;46444;-66
2022/03/21 08:14:37;;;;;;;;;43.50;36.75;;;;;11.94;52.80;102226.56;5033896;28;45681;-64
2022/03/21 08:17:03;;;;;;;;;49.00;38.00;;;;;11.97;53.16;102226.22;5019668;28;45439;-64
2022/03/21 08:19:29;;;;;;;;;52.60;40.20;;;;;11.96;52.56;102223.66;5034330;28;45672;-65
2022/03/21 08:21:54;;;;;;;;;50.50;41.25;;;;;11.83;52.58;102200.38;5034091;28;45629;-64
2022/03/21 08:24:21;;;;;;;;;49.00;38.75;;;;;11.83;52.48;102194.88;5038064;28;45543;-65
2022/03/21 08:26:50;;;;;;;;;41.80;37.00;;;;;12.02;52.33;102229.25;5038257;28;45761;-65
2022/03/21 08:29:16;;;;;;;;;51.80;37.80;;;;;12.05;52.76;102226.19;5001554;28;45868;-66
2022/03/21 08:31:42;;;;;;;;;42.75;36.00;;;;;12.05;52.56;102233.56;5037791;28;45982;-63
2022/03/21 08:34:07;;;;;;;;;46.20;37.00;;;;;12.07;51.87;102231.50;5037786;28;45385;-64
2022/03/21 08:36:33;;;;;;;;;36.50;35.00;;;;;11.86;52.14;102197.25;5037722;28;45303;-64
2022/03/21 08:38:58;;;;;;;;;42.50;36.75;;;;;12.11;51.96;102234.75;5038126;28;45315;-65
2022/03/21 08:41:24;;;;;;;;;40.25;35.00;;;;;12.09;51.88;102232.16;5036293;28;46256;-64
2022/03/21 08:43:50;;;;;;;;;42.50;36.00;;;;;11.89;52.29;102198.75;5036562;28;45443;-63
2022/03/21 08:46:15;;;;;;;;;45.25;38.00;;;;;12.15;52.21;102231.44;5035900;28;45443;-63
2022/03/21 08:51:26;;;;;;;;;42.80;36.40;;;;;12.25;51.65;102225.66;5036671;28;45489;-64
2022/03/21 08:53:52;;;;;;;;;36.75;32.50;;;;;12.29;51.67;102232.50;5036420;28;45311;-67
2022/03/21 08:56:18;;;;;;;;;38.00;34.80;;;;;12.29;51.15;102229.75;5037305;28;45478;-65
2022/03/21 08:58:43;;;;;;;;;46.00;37.75;;;;;12.32;51.40;102234.00;5036214;28;45517;-64
2022/03/21 09:01:09;;;;;;;;;55.00;45.50;;;;;11.89;51.22;102158.34;5019963;28;46855;-65
2022/03/21 09:03:34;;;;;;;;;54.75;43.00;;;;;12.32;51.43;102217.50;5036543;28;45445;-65
2022/03/21 09:06:00;;;;;;;;;40.50;34.25;;;;;12.19;51.86;102185.13;5036104;28;45504;-64
2022/03/21 09:08:26;;;;;;;;;29.75;28.50;;;;;12.48;51.04;102221.97;5038447;28;45393;-65
2022/03/21 09:10:52;;;;;;;;;39.40;35.00;;;;;12.51;51.21;102232.63;5032799;28;45397;-65
2022/03/21 09:13:18;;;;;;;;;34.00;31.00;;;;;12.30;51.18;102186.53;4999565;28;45379;-66
2022/03/21 09:15:44;;;;;;;;;41.80;34.20;;;;;12.60;50.80;102222.38;5031866;28;45271;-67
2022/03/21 09:18:09;;;;;;;;;38.50;31.25;;;;;12.51;51.02;102199.56;5031677;28;45426;-64
2022/03/21 09:20:35;;;;;;;;;36.25;33.75;;;;;12.74;51.12;102228.91;5032184;28;45455;-64
2022/03/21 09:23:00;;;;;;;;;33.75;30.25;;;;;12.79;50.97;102222.84;5017431;28;45361;-64
2022/03/21 09:25:26;;;;;;;;;41.75;33.75;;;;;12.87;50.86;102218.06;5022710;28;45407;-65
2022/03/21 09:27:52;;;;;;;;;36.00;28.25;;;;;12.97;50.58;102220.53;5027424;27;45531;-67
2022/03/21 09:30:17;;;;;;;;;46.25;38.00;;;;;12.30;50.55;102099.31;5034755;28;45465;-63
2022/03/21 09:32:43;;;;;;;;;38.00;31.25;;;;;13.11;50.61;102218.81;5036454;28;45380;-64
2022/03/21 09:35:09;;;;;;;;;41.00;33.75;;;;;13.04;50.34;102189.47;5035569;28;45356;-63
2022/03/21 09:37:34;;;;;;;;;37.25;33.00;;;;;13.33;49.73;102218.84;5018659;28;45553;-62
2022/03/21 09:40:00;;;;;;;;;42.50;35.00;;;;;13.44;49.72;102216.66;5036394;28;46375;-64
2022/03/21 09:42:26;;;;;;;;;34.00;33.00;;;;;13.41;49.45;102210.47;5035126;28;45357;-64
2022/03/21 09:44:53;;;;;;;;;45.50;33.25;;;;;13.62;49.24;102227.28;5035627;28;45477;-62
2022/03/21 09:50:07;;;;;;;;;40.80;35.00;;;;;13.55;48.72;102180.28;5021659;28;45476;-62
2022/03/21 09:52:32;;;;;;;;;67.00;51.50;;;;;13.87;49.12;102213.91;5018432;28;45412;-62
2022/03/21 09:54:58;;;;;;;;;72.25;56.25;;;;;14.00;48.65;102215.97;5034079;28;45713;-65
2022/03/21 09:57:26;;;;;;;;;45.25;36.00;;;;;14.04;48.13;102210.91;5034836;28;45567;-64
2022/03/21 09:59:52;;;;;;;;;32.80;28.40;;;;;13.92;48.21;102170.03;5034644;28;46544;-63
2022/03/21 10:02:18;;;;;;;;;35.80;33.20;;;;;14.23;47.89;102209.34;5035004;28;45541;-65
2022/03/21 10:04:43;;;;;;;;;35.40;30.40;;;;;14.29;48.09;102207.69;5036473;28;45318;-63
2022/03/21 10:07:10;;;;;;;;;32.50;29.00;;;;;14.37;47.70;102204.78;5035234;28;45259;-62
2022/03/21 10:09:36;;;;;;;;;29.60;25.40;;;;;14.42;47.06;102202.28;5018135;28;45461;-62
2022/03/21 10:12:11;;;;;;;;;33.40;30.80;;;;;14.52;46.95;102207.44;5036320;28;45568;-60
2022/03/21 10:14:36;;;;;;;;;33.80;24.20;;;;;14.37;45.91;102177.16;5036567;28;45783;-63
2022/03/21 10:17:15;;;;;;;;;28.75;25.75;;;;;14.57;46.97;102193.84;5018195;28;45592;-62
2022/03/21 10:19:45;;;;;;;;;33.20;27.60;;;;;14.59;46.78;102180.69;5033185;28;48107;-62
2022/03/21 10:22:19;;;;;;;;;23.80;23.60;;;;;14.81;46.75;102193.56;5035296;28;45438;-62
2022/03/21 10:24:46;;;;;;;;;25.60;23.20;;;;;14.91;45.46;102191.28;5035027;28;45495;-62
2022/03/21 10:27:34;;;;;;;;;28.00;23.40;;;;;14.99;45.97;102187.50;5035060;28;45656;-62
2022/03/21 10:30:07;;;;;;;;;24.40;20.40;;;;;14.68;45.39;102114.19;5025590;28;45402;-63
2022/03/21 10:32:42;;;;;;;;;387.50;216.00;;;;;15.06;45.08;102157.09;5019384;28;45496;-61
2022/03/21 10:35:13;;;;;;;;;237.33;149.67;;;;;15.34;45.16;102183.78;5036035;28;45450;-62
2022/03/21 10:37:58;;;;;;;;;18.00;15.80;;;;;15.43;45.18;102188.06;5051183;28;45547;-60
2022/03/21 10:40:43;;;;;;;;;19.00;15.80;;;;;15.55;45.03;102186.41;5034596;28;45851;-62
2022/03/21 10:43:15;;;;;;;;;18.20;17.00;;;;;15.62;44.82;102169.78;5034533;28;45414;-63
2022/03/21 10:45:41;;;;;;;;;28.20;26.80;;;;;15.79;44.21;102184.06;5034590;28;45361;-62
2022/03/21 10:48:29;;;;;;;;;21.40;17.60;;;;;15.86;44.12;102176.59;5035730;28;45583;-64
2022/03/21 10:50:55;;;;;;;;;17.00;16.40;;;;;15.90;43.82;102162.34;5030842;28;47307;-63
2022/03/21 10:53:23;;;;;;;;;48.20;34.20;;;;;15.91;43.52;102141.91;5015671;28;45444;-64
2022/03/21 10:55:50;;;;;;;;;15.40;14.00;;;;;15.91;43.72;102123.34;5026964;28;45421;-62
2022/03/21 10:58:17;;;;;;;;;23.00;18.20;;;;;16.28;43.03;102158.94;5017730;28;45488;-63
2022/03/21 11:00:43;;;;;;;;;203.00;113.67;;;;;16.39;43.02;102172.13;5030984;28;46246;-64
2022/03/21 11:03:15;;;;;;;;;18.25;17.25;;;;;16.47;42.50;102162.72;5034078;28;45409;-64
2022/03/21 11:05:46;;;;;;;;;15.60;13.60;;;;;16.62;42.35;102173.56;5034921;28;45322;-66
2022/03/21 11:08:16;;;;;;;;;14.80;14.00;;;;;16.75;42.25;102161.56;5064972;27;45401;-61
2022/03/21 11:10:41;;;;;;;;;14.40;13.00;;;;;16.85;41.77;102157.50;5034815;28;46535;-61
2022/03/21 11:13:08;;;;;;;;;10.25;8.25;;;;;16.93;42.06;102160.84;5034438;28;45475;-62
2022/03/21 11:15:35;;;;;;;;;15.40;14.40;;;;;17.04;41.66;102151.00;5034355;28;45320;-64
2022/03/21 11:18:01;;;;;;;;;19.60;16.60;;;;;17.12;41.38;102144.38;5066725;28;45411;-63
2022/03/21 11:20:28;;;;;;;;;15.50;13.25;;;;;17.02;41.05;102125.44;5031816;28;46269;-64
2022/03/21 11:22:55;;;;;;;;;15.60;15.60;;;;;17.16;41.07;102137.31;5016494;28;45453;-63
2022/03/21 11:25:22;;;;;;;;;13.80;11.80;;;;;17.15;41.02;102135.63;5033639;28;45379;-62
2022/03/21 11:28:12;;;;;;;;;17.20;13.20;;;;;17.25;41.17;102135.13;5050949;28;45315;-66
2022/03/21 11:30:50;;;;;;;;;16.80;16.80;;;;;17.22;40.70;102112.53;5039920;27;45628;-62
2022/03/21 11:34:10;;;;;;;;;17.00;12.60;;;;;17.34;41.13;102106.03;5038581;28;45373;-64